sensor_id;sensor_type;location;lat;lon;timestamp;pressure;altitude;pressure_sealevel;temperature;humidity
21185;BME280;18176;49.502;11.754;2023-07-29T00:02:36;96559.72;;;23.72;69.46
21185;BME280;18176;49.502;11.754;2023-07-29T00:06:39;96552.75;;;23.71;69.43
21185;BME280;18176;49.502;11.754;2023-07-29T00:10:40;96551.47;;;23.68;68.72
21185;BME280;18176;49.502;11.754;2023-07-29T00:14:40;96558.91;;;23.71;69.06
21185;BME280;18176;49.502;11.754;2023-07-29T00:18:40;96561.00;;;23.74;69.22
21185;BME280;18176;49.502;11.754;2023-07-29T00:22:43;96552.59;;;23.59;69.77
21185;BME280;18176;49.502;11.754;2023-07-29T00:26:43;96506.50;;;23.47;69.00
21185;BME280;18176;49.502;11.754;2023-07-29T00:30:43;96523.81;;;23.54;68.96
21185;BME280;18176;49.502;11.754;2023-07-29T00:34:44;96545.59;;;23.58;68.90
21185;BME280;18176;49.502;11.754;2023-07-29T00:38:47;96537.03;;;23.47;69.57
21185;BME280;18176;49.502;11.754;2023-07-29T00:42:48;96559.78;;;23.55;69.33
21185;BME280;18176;49.502;11.754;2023-07-29T00:46:52;96558.50;;;23.52;69.48
21185;BME280;18176;49.502;11.754;2023-07-29T00:50:53;96550.88;;;23.46;69.87
21185;BME280;18176;49.502;11.754;2023-07-29T00:54:56;96550.38;;;23.44;70.02
21185;BME280;18176;49.502;11.754;2023-07-29T00:58:57;96536.06;;;23.52;69.73
21185;BME280;18176;49.502;11.754;2023-07-29T01:02:59;96528.13;;;23.47;69.34
21185;BME280;18176;49.502;11.754;2023-07-29T01:07:08;96527.00;;;23.39;69.83
21185;BME280;18176;49.502;11.754;2023-07-29T01:11:30;96529.72;;;23.48;69.41
21185;BME280;18176;49.502;11.754;2023-07-29T01:15:42;96528.13;;;23.47;69.31
21185;BME280;18176;49.502;11.754;2023-07-29T01:20:00;96529.25;;;23.37;69.83
21185;BME280;18176;49.502;11.754;2023-07-29T01:24:06;96525.59;;;23.25;70.37
21185;BME280;18176;49.502;11.754;2023-07-29T01:28:06;96533.69;;;23.25;70.43
21185;BME280;18176;49.502;11.754;2023-07-29T01:32:11;96549.28;;;23.11;70.56
21185;BME280;18176;49.502;11.754;2023-07-29T01:36:21;96538.31;;;23.16;70.81
21185;BME280;18176;49.502;11.754;2023-07-29T01:40:27;96542.78;;;22.94;71.61
21185;BME280;18176;49.502;11.754;2023-07-29T01:44:28;96542.16;;;23.06;71.75
21185;BME280;18176;49.502;11.754;2023-07-29T01:48:28;96542.13;;;22.80;72.64
21185;BME280;18176;49.502;11.754;2023-07-29T01:52:30;96529.41;;;22.89;71.77
21185;BME280;18176;49.502;11.754;2023-07-29T01:56:33;96532.44;;;22.88;72.22
21185;BME280;18176;49.502;11.754;2023-07-29T02:00:34;96540.56;;;22.96;72.23
21185;BME280;18176;49.502;11.754;2023-07-29T02:04:35;96529.13;;;22.99;71.72
21185;BME280;18176;49.502;11.754;2023-07-29T02:08:35;96541.66;;;23.13;71.15
21185;BME280;18176;49.502;11.754;2023-07-29T02:12:40;96530.06;;;23.03;71.74
21185;BME280;18176;49.502;11.754;2023-07-29T02:16:40;96476.03;;;22.69;71.76
21185;BME280;18176;49.502;11.754;2023-07-29T02:20:41;96528.31;;;22.82;72.50
21185;BME280;18176;49.502;11.754;2023-07-29T02:24:47;96525.56;;;22.56;73.39
21185;BME280;18176;49.502;11.754;2023-07-29T02:28:49;96529.75;;;22.96;72.42
21185;BME280;18176;49.502;11.754;2023-07-29T02:32:50;96533.69;;;22.65;73.18
21185;BME280;18176;49.502;11.754;2023-07-29T02:36:50;96536.09;;;23.00;72.24
21185;BME280;18176;49.502;11.754;2023-07-29T02:40:50;96522.44;;;22.88;72.02
21185;BME280;18176;49.502;11.754;2023-07-29T02:44:53;96534.84;;;23.07;71.66
21185;BME280;18176;49.502;11.754;2023-07-29T02:48:53;96515.13;;;22.80;72.17
21185;BME280;18176;49.502;11.754;2023-07-29T02:52:54;96532.28;;;22.84;72.53
21185;BME280;18176;49.502;11.754;2023-07-29T02:56:54;96531.00;;;22.73;72.68
21185;BME280;18176;49.502;11.754;2023-07-29T03:01:00;96504.63;;;22.96;71.79
21185;BME280;18176;49.502;11.754;2023-07-29T03:05:02;96516.69;;;23.16;71.10
21185;BME280;18176;49.502;11.754;2023-07-29T03:09:02;96516.69;;;23.16;71.04
21185;BME280;18176;49.502;11.754;2023-07-29T03:13:03;96511.31;;;22.98;71.55
21185;BME280;18176;49.502;11.754;2023-07-29T03:17:06;96516.34;;;23.26;70.83
21185;BME280;18176;49.502;11.754;2023-07-29T03:21:07;96518.59;;;23.24;70.32
21185;BME280;18176;49.502;11.754;2023-07-29T03:25:08;96504.75;;;23.17;70.33
21185;BME280;18176;49.502;11.754;2023-07-29T03:29:08;96493.50;;;22.80;71.54
21185;BME280;18176;49.502;11.754;2023-07-29T03:33:12;96491.28;;;22.65;71.77
21185;BME280;18176;49.502;11.754;2023-07-29T03:37:12;96506.50;;;22.44;71.77
21185;BME280;18176;49.502;11.754;2023-07-29T03:41:12;96503.25;;;22.25;73.04
21185;BME280;18176;49.502;11.754;2023-07-29T03:45:13;96496.22;;;21.98;73.68
21185;BME280;18176;49.502;11.754;2023-07-29T03:49:15;96507.97;;;22.11;73.65
21185;BME280;18176;49.502;11.754;2023-07-29T03:53:16;96507.22;;;21.80;74.57
21185;BME280;18176;49.502;11.754;2023-07-29T03:57:16;96505.13;;;21.77;75.53
21185;BME280;18176;49.502;11.754;2023-07-29T04:01:16;96508.44;;;21.74;75.79
21185;BME280;18176;49.502;11.754;2023-07-29T04:05:20;96450.84;;;21.30;76.30
21185;BME280;18176;49.502;11.754;2023-07-29T04:09:20;96511.16;;;21.74;76.31
21185;BME280;18176;49.502;11.754;2023-07-29T04:13:20;96497.03;;;21.68;76.65
21185;BME280;18176;49.502;11.754;2023-07-29T04:17:21;96490.22;;;21.71;76.04
21185;BME280;18176;49.502;11.754;2023-07-29T04:21:24;96487.31;;;21.98;74.98
21185;BME280;18176;49.502;11.754;2023-07-29T04:25:25;96493.81;;;21.97;74.95
21185;BME280;18176;49.502;11.754;2023-07-29T04:29:25;96496.50;;;21.88;74.97
21185;BME280;18176;49.502;11.754;2023-07-29T04:33:26;96515.44;;;22.05;74.55
21185;BME280;18176;49.502;11.754;2023-07-29T04:37:29;96501.91;;;21.97;74.70
21185;BME280;18176;49.502;11.754;2023-07-29T04:41:29;96515.25;;;22.02;75.22
21185;BME280;18176;49.502;11.754;2023-07-29T04:45:30;96505.88;;;21.99;74.80
21185;BME280;18176;49.502;11.754;2023-07-29T04:49:31;96502.94;;;22.18;74.30
21185;BME280;18176;49.502;11.754;2023-07-29T04:53:33;96499.81;;;22.33;74.16
21185;BME280;18176;49.502;11.754;2023-07-29T04:57:35;96475.00;;;22.31;73.80
21185;BME280;18176;49.502;11.754;2023-07-29T05:01:35;96500.63;;;22.59;73.24
21185;BME280;18176;49.502;11.754;2023-07-29T05:05:36;96506.22;;;22.71;73.04
21185;BME280;18176;49.502;11.754;2023-07-29T05:09:39;96490.31;;;23.04;71.84
21185;BME280;18176;49.502;11.754;2023-07-29T05:13:40;96508.91;;;23.05;70.88
21185;BME280;18176;49.502;11.754;2023-07-29T05:17:42;96511.84;;;23.64;70.59
21185;BME280;18176;49.502;11.754;2023-07-29T05:21:42;96466.75;;;23.85;69.34
21185;BME280;18176;49.502;11.754;2023-07-29T05:25:45;96504.56;;;24.31;68.44
21185;BME280;18176;49.502;11.754;2023-07-29T05:29:45;96493.56;;;24.57;66.55
21185;BME280;18176;49.502;11.754;2023-07-29T05:33:45;96489.22;;;25.06;64.37
21185;BME280;18176;49.502;11.754;2023-07-29T05:37:46;96498.94;;;25.07;62.94
21185;BME280;18176;49.502;11.754;2023-07-29T05:41:49;96480.69;;;25.16;62.44
21185;BME280;18176;49.502;11.754;2023-07-29T05:45:49;96482.53;;;25.36;62.13
21185;BME280;18176;49.502;11.754;2023-07-29T05:49:50;96453.09;;;25.47;62.25
21185;BME280;18176;49.502;11.754;2023-07-29T05:53:50;96470.97;;;25.48;61.32
21185;BME280;18176;49.502;11.754;2023-07-29T05:57:53;96449.50;;;24.69;63.25
21185;BME280;18176;49.502;11.754;2023-07-29T06:01:56;96468.75;;;25.29;61.62
21185;BME280;18176;49.502;11.754;2023-07-29T06:05:56;96465.88;;;25.46;60.44
21185;BME280;18176;49.502;11.754;2023-07-29T06:09:56;96479.28;;;25.43;60.86
21185;BME280;18176;49.502;11.754;2023-07-29T06:13:59;96485.84;;;25.09;61.70
21185;BME280;18176;49.502;11.754;2023-07-29T06:18:00;96483.47;;;24.87;62.43
21185;BME280;18176;49.502;11.754;2023-07-29T06:22:00;96479.34;;;25.22;62.01
21185;BME280;18176;49.502;11.754;2023-07-29T06:26:01;96479.59;;;25.29;61.82
21185;BME280;18176;49.502;11.754;2023-07-29T06:30:07;96481.69;;;25.44;61.44
21185;BME280;18176;49.502;11.754;2023-07-29T06:34:07;96469.84;;;25.16;62.71
21185;BME280;18176;49.502;11.754;2023-07-29T06:38:08;96487.75;;;25.41;62.50
21185;BME280;18176;49.502;11.754;2023-07-29T06:42:08;96485.25;;;25.36;61.99
21185;BME280;18176;49.502;11.754;2023-07-29T06:46:11;96460.94;;;25.28;61.82
21185;BME280;18176;49.502;11.754;2023-07-29T06:50:11;96470.56;;;25.37;62.02
21185;BME280;18176;49.502;11.754;2023-07-29T06:54:11;96468.59;;;25.46;62.40
21185;BME280;18176;49.502;11.754;2023-07-29T06:58:12;96448.06;;;26.06;60.32
21185;BME280;18176;49.502;11.754;2023-07-29T07:02:15;96467.78;;;26.15;59.51
21185;BME280;18176;49.502;11.754;2023-07-29T07:06:16;96427.41;;;25.32;61.97
21185;BME280;18176;49.502;11.754;2023-07-29T07:10:16;96480.28;;;25.05;63.46
21185;BME280;18176;49.502;11.754;2023-07-29T07:14:16;96475.66;;;24.44;67.58
21185;BME280;18176;49.502;11.754;2023-07-29T07:18:19;96462.09;;;23.94;71.03
21185;BME280;18176;49.502;11.754;2023-07-29T07:22:20;96471.03;;;23.86;73.39
21185;BME280;18176;49.502;11.754;2023-07-29T07:26:21;96452.94;;;23.78;74.65
21185;BME280;18176;49.502;11.754;2023-07-29T07:30:21;96480.16;;;23.73;75.29
21185;BME280;18176;49.502;11.754;2023-07-29T07:34:24;96479.25;;;23.98;74.46
21185;BME280;18176;49.502;11.754;2023-07-29T07:38:24;96479.53;;;24.05;74.38
21185;BME280;18176;49.502;11.754;2023-07-29T07:42:24;96503.75;;;24.10;73.02
21185;BME280;18176;49.502;11.754;2023-07-29T07:46:25;96477.75;;;23.80;75.15
21185;BME280;18176;49.502;11.754;2023-07-29T07:50:29;96462.22;;;23.60;75.92
21185;BME280;18176;49.502;11.754;2023-07-29T07:54:29;96473.19;;;24.01;75.91
21185;BME280;18176;49.502;11.754;2023-07-29T07:58:30;96473.25;;;23.84;74.82
21185;BME280;18176;49.502;11.754;2023-07-29T08:02:30;96474.19;;;23.88;75.26
21185;BME280;18176;49.502;11.754;2023-07-29T08:06:33;96481.56;;;24.17;74.76
21185;BME280;18176;49.502;11.754;2023-07-29T08:10:34;96468.91;;;24.50;73.01
21185;BME280;18176;49.502;11.754;2023-07-29T08:14:34;96470.81;;;24.79;72.71
21185;BME280;18176;49.502;11.754;2023-07-29T08:18:34;96473.31;;;24.84;72.07
21185;BME280;18176;49.502;11.754;2023-07-29T08:22:39;96477.13;;;25.03;71.17
21185;BME280;18176;49.502;11.754;2023-07-29T08:26:39;96477.56;;;25.38;70.65
21185;BME280;18176;49.502;11.754;2023-07-29T08:30:39;96455.69;;;25.43;69.11
21185;BME280;18176;49.502;11.754;2023-07-29T08:34:39;96449.59;;;25.58;68.54
21185;BME280;18176;49.502;11.754;2023-07-29T08:38:42;96474.47;;;25.48;69.99
21185;BME280;18176;49.502;11.754;2023-07-29T08:42:47;96470.00;;;25.32;69.62
21185;BME280;18176;49.502;11.754;2023-07-29T08:46:48;96458.31;;;25.19;69.63
21185;BME280;18176;49.502;11.754;2023-07-29T08:50:51;96419.13;;;24.84;69.61
21185;BME280;18176;49.502;11.754;2023-07-29T08:54:55;96436.69;;;24.78;69.81
21185;BME280;18176;49.502;11.754;2023-07-29T08:58:57;96467.81;;;24.72;72.38
21185;BME280;18176;49.502;11.754;2023-07-29T09:02:59;96472.47;;;24.21;76.19
21185;BME280;18176;49.502;11.754;2023-07-29T09:07:05;96494.13;;;24.21;76.01
21185;BME280;18176;49.502;11.754;2023-07-29T09:11:10;96524.50;;;23.81;77.33
21185;BME280;18176;49.502;11.754;2023-07-29T09:15:27;96495.16;;;23.53;78.80
21185;BME280;18176;49.502;11.754;2023-07-29T09:19:28;96459.41;;;23.48;78.24
21185;BME280;18176;49.502;11.754;2023-07-29T09:23:28;96464.81;;;23.31;73.89
21185;BME280;18176;49.502;11.754;2023-07-29T09:27:31;96456.47;;;22.89;70.68
21185;BME280;18176;49.502;11.754;2023-07-29T09:31:36;96490.94;;;22.84;72.13
21185;BME280;18176;49.502;11.754;2023-07-29T09:35:37;96507.97;;;22.67;72.29
21185;BME280;18176;49.502;11.754;2023-07-29T09:39:38;96494.41;;;22.50;73.33
21185;BME280;18176;49.502;11.754;2023-07-29T09:43:44;96488.34;;;22.36;74.48
21185;BME280;18176;49.502;11.754;2023-07-29T09:47:47;96479.28;;;22.23;73.74
21185;BME280;18176;49.502;11.754;2023-07-29T09:51:47;96481.34;;;22.26;73.30
21185;BME280;18176;49.502;11.754;2023-07-29T09:55:49;96506.09;;;22.20;74.04
21185;BME280;18176;49.502;11.754;2023-07-29T09:59:58;96508.38;;;22.35;75.54
21185;BME280;18176;49.502;11.754;2023-07-29T10:04:03;96508.28;;;22.74;74.97
21185;BME280;18176;49.502;11.754;2023-07-29T10:08:09;96519.56;;;22.93;75.61
21185;BME280;18176;49.502;11.754;2023-07-29T10:12:11;96533.53;;;22.95;75.99
21185;BME280;18176;49.502;11.754;2023-07-29T10:16:19;96541.00;;;23.07;75.64
21185;BME280;18176;49.502;11.754;2023-07-29T10:20:22;96524.03;;;22.89;76.95
21185;BME280;18176;49.502;11.754;2023-07-29T10:24:29;96521.94;;;23.03;77.66
21185;BME280;18176;49.502;11.754;2023-07-29T10:28:31;96514.78;;;23.08;76.88
21185;BME280;18176;49.502;11.754;2023-07-29T10:32:35;96514.63;;;23.21;77.56
21185;BME280;18176;49.502;11.754;2023-07-29T10:36:37;96495.56;;;23.18;77.49
21185;BME280;18176;49.502;11.754;2023-07-29T10:40:49;96507.28;;;23.47;77.43
21185;BME280;18176;49.502;11.754;2023-07-29T10:44:52;96491.34;;;23.92;76.23
21185;BME280;18176;49.502;11.754;2023-07-29T10:48:57;96497.44;;;24.48;73.85
21185;BME280;18176;49.502;11.754;2023-07-29T10:52:57;96511.03;;;25.42;72.09
21185;BME280;18176;49.502;11.754;2023-07-29T10:56:58;96495.78;;;25.83;69.31
21185;BME280;18176;49.502;11.754;2023-07-29T11:00:58;96479.91;;;26.57;65.36
21185;BME280;18176;49.502;11.754;2023-07-29T11:05:06;96457.94;;;26.74;65.06
21185;BME280;18176;49.502;11.754;2023-07-29T11:09:39;96475.44;;;26.37;65.58
21185;BME280;18176;49.502;11.754;2023-07-29T11:13:40;96448.72;;;25.91;67.21
21185;BME280;18176;49.502;11.754;2023-07-29T11:17:43;96470.72;;;26.86;67.53
21185;BME280;18176;49.502;11.754;2023-07-29T11:21:48;96438.56;;;28.60;61.24
21185;BME280;18176;49.502;11.754;2023-07-29T11:25:49;96460.09;;;30.06;55.17
21185;BME280;18176;49.502;11.754;2023-07-29T11:29:50;96456.31;;;30.14;54.93
21185;BME280;18176;49.502;11.754;2023-07-29T11:33:51;96467.09;;;29.61;55.83
21185;BME280;18176;49.502;11.754;2023-07-29T11:37:55;96463.84;;;28.76;57.80
21185;BME280;18176;49.502;11.754;2023-07-29T11:41:56;96479.09;;;27.36;60.92
21185;BME280;18176;49.502;11.754;2023-07-29T11:45:56;96474.84;;;27.07;62.39
21185;BME280;18176;49.502;11.754;2023-07-29T11:50:03;96463.09;;;27.78;59.92
21185;BME280;18176;49.502;11.754;2023-07-29T11:54:07;96454.94;;;27.62;59.98
21185;BME280;18176;49.502;11.754;2023-07-29T11:58:08;96451.88;;;27.64;59.95
21185;BME280;18176;49.502;11.754;2023-07-29T12:02:13;96460.06;;;28.11;58.57
21185;BME280;18176;49.502;11.754;2023-07-29T12:06:15;96456.16;;;28.62;55.97
21185;BME280;18176;49.502;11.754;2023-07-29T12:10:19;96450.09;;;28.88;55.83
21185;BME280;18176;49.502;11.754;2023-07-29T12:14:19;96442.91;;;29.37;53.75
21185;BME280;18176;49.502;11.754;2023-07-29T12:18:30;96444.34;;;28.74;53.96
21185;BME280;18176;49.502;11.754;2023-07-29T12:22:31;96397.34;;;28.26;56.35
21185;BME280;18176;49.502;11.754;2023-07-29T12:26:35;96419.50;;;28.25;58.58
21185;BME280;18176;49.502;11.754;2023-07-29T12:30:41;96398.47;;;28.06;58.78
21185;BME280;18176;49.502;11.754;2023-07-29T12:34:42;96423.03;;;27.63;60.48
21185;BME280;18176;49.502;11.754;2023-07-29T12:38:43;96427.63;;;27.59;61.66
21185;BME280;18176;49.502;11.754;2023-07-29T12:42:46;96417.22;;;28.11;59.69
21185;BME280;18176;49.502;11.754;2023-07-29T12:46:47;96417.06;;;29.12;57.12
21185;BME280;18176;49.502;11.754;2023-07-29T12:50:47;96428.59;;;29.89;54.54
21185;BME280;18176;49.502;11.754;2023-07-29T12:54:48;96425.91;;;30.19;52.57
21185;BME280;18176;49.502;11.754;2023-07-29T12:58:51;96428.78;;;30.52;50.55
21185;BME280;18176;49.502;11.754;2023-07-29T13:02:51;96429.81;;;30.18;49.75
21185;BME280;18176;49.502;11.754;2023-07-29T13:06:52;96418.13;;;30.73;48.54
21185;BME280;18176;49.502;11.754;2023-07-29T13:10:53;96412.72;;;31.94;44.82
21185;BME280;18176;49.502;11.754;2023-07-29T13:14:56;96401.06;;;31.57;44.76
21185;BME280;18176;49.502;11.754;2023-07-29T13:18:57;96371.09;;;32.29;44.37
21185;BME280;18176;49.502;11.754;2023-07-29T13:22:57;96386.97;;;32.60;42.59
21185;BME280;18176;49.502;11.754;2023-07-29T13:26:58;96394.63;;;32.33;42.39
21185;BME280;18176;49.502;11.754;2023-07-29T13:31:01;96395.63;;;32.73;43.24
21185;BME280;18176;49.502;11.754;2023-07-29T13:35:01;96396.31;;;34.09;39.69
21185;BME280;18176;49.502;11.754;2023-07-29T13:39:02;96399.09;;;32.63;40.61
21185;BME280;18176;49.502;11.754;2023-07-29T13:43:03;96397.13;;;31.98;42.01
21185;BME280;18176;49.502;11.754;2023-07-29T13:47:06;96378.81;;;31.62;43.10
21185;BME280;18176;49.502;11.754;2023-07-29T13:51:06;96364.03;;;31.30;43.88
21185;BME280;18176;49.502;11.754;2023-07-29T13:55:07;96378.91;;;32.27;41.53
21185;BME280;18176;49.502;11.754;2023-07-29T13:59:08;96353.19;;;32.49;40.69
21185;BME280;18176;49.502;11.754;2023-07-29T14:03:11;96378.81;;;32.09;41.45
21185;BME280;18176;49.502;11.754;2023-07-29T14:07:11;96378.47;;;32.21;40.58
21185;BME280;18176;49.502;11.754;2023-07-29T14:11:12;96387.78;;;31.18;41.55
21185;BME280;18176;49.502;11.754;2023-07-29T14:15:12;96386.34;;;30.95;42.41
21185;BME280;18176;49.502;11.754;2023-07-29T14:19:16;96369.00;;;31.57;41.37
21185;BME280;18176;49.502;11.754;2023-07-29T14:23:16;96376.31;;;32.51;39.12
21185;BME280;18176;49.502;11.754;2023-07-29T14:27:16;96361.53;;;32.05;40.10
21185;BME280;18176;49.502;11.754;2023-07-29T14:31:17;96350.78;;;32.37;39.09
21185;BME280;18176;49.502;11.754;2023-07-29T14:35:20;96365.78;;;32.61;39.13
21185;BME280;18176;49.502;11.754;2023-07-29T14:39:21;96349.13;;;33.15;37.71
21185;BME280;18176;49.502;11.754;2023-07-29T14:43:21;96344.84;;;33.24;38.30
21185;BME280;18176;49.502;11.754;2023-07-29T14:47:22;96351.63;;;32.51;39.50
21185;BME280;18176;49.502;11.754;2023-07-29T14:51:25;96355.25;;;32.01;39.97
21185;BME280;18176;49.502;11.754;2023-07-29T14:55:25;96347.38;;;31.08;41.73
21185;BME280;18176;49.502;11.754;2023-07-29T14:59:25;96326.47;;;31.27;41.75
21185;BME280;18176;49.502;11.754;2023-07-29T15:03:26;96339.72;;;31.24;43.26
21185;BME280;18176;49.502;11.754;2023-07-29T15:07:29;96337.22;;;31.46;43.63
21185;BME280;18176;49.502;11.754;2023-07-29T15:11:29;96343.75;;;32.46;42.03
21185;BME280;18176;49.502;11.754;2023-07-29T15:15:30;96330.16;;;32.75;40.72
21185;BME280;18176;49.502;11.754;2023-07-29T15:19:30;96354.97;;;31.66;42.13
21185;BME280;18176;49.502;11.754;2023-07-29T15:23:33;96347.31;;;31.85;42.33
21185;BME280;18176;49.502;11.754;2023-07-29T15:27:33;96356.38;;;31.46;41.83
21185;BME280;18176;49.502;11.754;2023-07-29T15:31:34;96318.72;;;32.51;39.68
21185;BME280;18176;49.502;11.754;2023-07-29T15:35:38;96312.88;;;32.56;40.38
21185;BME280;18176;49.502;11.754;2023-07-29T15:39:41;96332.88;;;32.61;40.21
21185;BME280;18176;49.502;11.754;2023-07-29T15:43:41;96320.81;;;32.00;40.97
21185;BME280;18176;49.502;11.754;2023-07-29T15:47:42;96334.28;;;32.33;40.38
21185;BME280;18176;49.502;11.754;2023-07-29T15:51:42;96326.59;;;32.53;39.52
21185;BME280;18176;49.502;11.754;2023-07-29T15:55:45;96341.28;;;32.20;39.71
21185;BME280;18176;49.502;11.754;2023-07-29T15:59:45;96335.91;;;32.41;38.70
21185;BME280;18176;49.502;11.754;2023-07-29T16:03:46;96336.88;;;32.84;38.66
21185;BME280;18176;49.502;11.754;2023-07-29T16:07:47;96315.00;;;33.19;37.72
21185;BME280;18176;49.502;11.754;2023-07-29T16:11:50;96351.31;;;31.99;39.18
21185;BME280;18176;49.502;11.754;2023-07-29T16:15:50;96346.47;;;31.78;40.01
21185;BME280;18176;49.502;11.754;2023-07-29T16:19:56;96341.75;;;31.75;39.70
21185;BME280;18176;49.502;11.754;2023-07-29T16:23:56;96344.59;;;31.42;40.25
21185;BME280;18176;49.502;11.754;2023-07-29T16:27:59;96343.50;;;31.50;39.44
21185;BME280;18176;49.502;11.754;2023-07-29T16:31:59;96354.31;;;30.95;40.50
21185;BME280;18176;49.502;11.754;2023-07-29T16:36:00;96356.22;;;30.91;40.85
21185;BME280;18176;49.502;11.754;2023-07-29T16:40:00;96368.88;;;30.73;41.24
21185;BME280;18176;49.502;11.754;2023-07-29T16:44:04;96363.16;;;30.52;41.01
21185;BME280;18176;49.502;11.754;2023-07-29T16:48:05;96372.72;;;31.39;39.36
21185;BME280;18176;49.502;11.754;2023-07-29T16:52:06;96380.34;;;30.52;40.53
21185;BME280;18176;49.502;11.754;2023-07-29T16:56:06;96364.81;;;30.60;40.70
21185;BME280;18176;49.502;11.754;2023-07-29T17:00:11;96382.47;;;29.61;41.41
21185;BME280;18176;49.502;11.754;2023-07-29T17:04:12;96380.91;;;29.38;42.01
21185;BME280;18176;49.502;11.754;2023-07-29T17:08:12;96384.03;;;29.17;42.28
21185;BME280;18176;49.502;11.754;2023-07-29T17:12:12;96384.06;;;29.40;42.00
21185;BME280;18176;49.502;11.754;2023-07-29T17:16:15;96386.06;;;29.65;41.60
21185;BME280;18176;49.502;11.754;2023-07-29T17:20:16;96386.50;;;29.94;40.33
21185;BME280;18176;49.502;11.754;2023-07-29T17:24:17;96335.97;;;30.66;38.72
21185;BME280;18176;49.502;11.754;2023-07-29T17:28:18;96382.44;;;31.33;38.44
21185;BME280;18176;49.502;11.754;2023-07-29T17:32:21;96391.59;;;30.77;39.56
21185;BME280;18176;49.502;11.754;2023-07-29T17:36:21;96376.28;;;29.87;41.52
21185;BME280;18176;49.502;11.754;2023-07-29T17:40:22;96398.66;;;29.73;42.53
21185;BME280;18176;49.502;11.754;2023-07-29T17:44:23;96401.75;;;29.95;42.67
21185;BME280;18176;49.502;11.754;2023-07-29T17:48:25;96397.63;;;30.04;42.37
21185;BME280;18176;49.502;11.754;2023-07-29T17:52:28;96382.50;;;30.36;41.72
21185;BME280;18176;49.502;11.754;2023-07-29T17:56:29;96398.28;;;30.50;41.33
21185;BME280;18176;49.502;11.754;2023-07-29T18:00:29;96395.59;;;30.01;42.29
21185;BME280;18176;49.502;11.754;2023-07-29T18:04:32;96392.13;;;29.55;43.34
21185;BME280;18176;49.502;11.754;2023-07-29T18:08:32;96386.06;;;28.82;44.79
21185;BME280;18176;49.502;11.754;2023-07-29T18:12:32;96400.78;;;28.77;45.27
21185;BME280;18176;49.502;11.754;2023-07-29T18:16:33;96406.69;;;28.44;46.12
21185;BME280;18176;49.502;11.754;2023-07-29T18:20:41;96412.28;;;28.51;45.85
21185;BME280;18176;49.502;11.754;2023-07-29T18:24:43;96415.31;;;28.46;46.16
21185;BME280;18176;49.502;11.754;2023-07-29T18:28:43;96404.97;;;28.36;46.23
21185;BME280;18176;49.502;11.754;2023-07-29T18:32:44;96420.44;;;28.32;46.55
21185;BME280;18176;49.502;11.754;2023-07-29T18:36:47;96419.06;;;28.23;46.51
21185;BME280;18176;49.502;11.754;2023-07-29T18:40:47;96431.13;;;27.75;48.10
21185;BME280;18176;49.502;11.754;2023-07-29T18:44:47;96434.41;;;27.65;48.12
21185;BME280;18176;49.502;11.754;2023-07-29T18:48:48;96418.84;;;27.50;48.55
21185;BME280;18176;49.502;11.754;2023-07-29T18:52:50;96433.31;;;27.38;48.78
21185;BME280;18176;49.502;11.754;2023-07-29T18:56:55;96423.09;;;27.35;48.78
21185;BME280;18176;49.502;11.754;2023-07-29T19:00:55;96441.31;;;27.47;49.17
21185;BME280;18176;49.502;11.754;2023-07-29T19:04:55;96441.81;;;26.93;50.71
21185;BME280;18176;49.502;11.754;2023-07-29T19:08:59;96437.00;;;26.75;50.65
21185;BME280;18176;49.502;11.754;2023-07-29T19:12:59;96463.69;;;26.85;51.15
21185;BME280;18176;49.502;11.754;2023-07-29T19:17:00;96469.63;;;26.75;52.32
21185;BME280;18176;49.502;11.754;2023-07-29T19:21:00;96467.69;;;26.63;52.76
21185;BME280;18176;49.502;11.754;2023-07-29T19:25:05;96452.16;;;26.24;53.41
21185;BME280;18176;49.502;11.754;2023-07-29T19:29:05;96469.78;;;26.30;53.68
21185;BME280;18176;49.502;11.754;2023-07-29T19:33:07;96479.31;;;26.12;53.97
21185;BME280;18176;49.502;11.754;2023-07-29T19:37:08;96458.47;;;25.92;54.65
21185;BME280;18176;49.502;11.754;2023-07-29T19:41:12;96461.16;;;25.79;55.00
21185;BME280;18176;49.502;11.754;2023-07-29T19:45:13;96479.72;;;25.77;56.01
21185;BME280;18176;49.502;11.754;2023-07-29T19:49:14;96454.41;;;25.41;56.71
21185;BME280;18176;49.502;11.754;2023-07-29T19:53:17;96482.63;;;25.48;56.73
21185;BME280;18176;49.502;11.754;2023-07-29T19:57:20;96476.88;;;25.29;56.88
21185;BME280;18176;49.502;11.754;2023-07-29T20:01:20;96487.03;;;25.20;56.85
21185;BME280;18176;49.502;11.754;2023-07-29T20:05:21;96496.94;;;25.16;57.19
21185;BME280;18176;49.502;11.754;2023-07-29T20:09:21;96497.09;;;24.99;57.64
21185;BME280;18176;49.502;11.754;2023-07-29T20:13:24;96496.00;;;25.12;57.53
21185;BME280;18176;49.502;11.754;2023-07-29T20:17:26;96500.66;;;24.70;59.33
21185;BME280;18176;49.502;11.754;2023-07-29T20:21:26;96485.19;;;24.71;59.28
21185;BME280;18176;49.502;11.754;2023-07-29T20:25:27;96492.84;;;25.10;58.51
21185;BME280;18176;49.502;11.754;2023-07-29T20:29:29;96494.47;;;24.90;59.48
21185;BME280;18176;49.502;11.754;2023-07-29T20:33:30;96489.31;;;24.77;59.47
21185;BME280;18176;49.502;11.754;2023-07-29T20:37:30;96493.75;;;24.73;59.44
21185;BME280;18176;49.502;11.754;2023-07-29T20:41:30;96502.75;;;24.65;58.99
21185;BME280;18176;49.502;11.754;2023-07-29T20:45:35;96483.06;;;24.56;58.35
21185;BME280;18176;49.502;11.754;2023-07-29T20:49:36;96500.50;;;24.67;58.16
21185;BME280;18176;49.502;11.754;2023-07-29T20:53:36;96505.28;;;24.70;58.00
21185;BME280;18176;49.502;11.754;2023-07-29T20:57:37;96509.50;;;24.59;58.90
21185;BME280;18176;49.502;11.754;2023-07-29T21:01:39;96495.34;;;24.74;59.03
21185;BME280;18176;49.502;11.754;2023-07-29T21:05:40;96502.13;;;24.68;58.89